Cut Bank, MT

7:53 PM MST on December 25, 2014 (GMT -0700)
Cut Bank Municipal | Change Station
CLOSE
Current Station
Airport
Location: Cut Bank,
Elevation: 3855 ft
Nearby Weather Stations

Elev 3855 ft 48.61 °N, 112.38 °W | Updated 47 minutes ago

Light Freezing Fog
Freezing Fog
6 °F
Feels Like 6 °F
N
0
Wind Variable Wind from North

Today
High -- | Low -- °F
--% Chance of Precip.
Yesterday
High -- | Low -- °F
Precip. -- in
8:20 AM 4:38 PM
Waxing Crescent, 21% visible
Pressure 29.90 in
Visibility 0.2 miles
Clouds
Dew Point 5 °F
Humidity 95%
Rainfall 0.00 in
Snow Depth Not available.
UV Not available.
Pollen .10 out of 12
Air Quality Not available.
Flu Activity Not available.
SPECI KCTB 260206Z AUTO 00000KT 1/4SM FZFG VV001 M14/M15 A2990 RMK AO2 T11441150

More Conditions Fewer Conditions

Pressure 29.90 in
Visibility 0.2 miles
Clouds
Dew Point 5 °F
Humidity 95%
Rainfall 0.00 in
Snow Depth Not available.
UV Not available.
Pollen .10 out of 12
Air Quality Not available.
Flu Activity Not available.
SPECI KCTB 260206Z AUTO 00000KT 1/4SM FZFG VV001 M14/M15 A2990 RMK AO2 T11441150

More Conditions Fewer Conditions

10-Day Weather Forecast

Almanac

Astronomy

Dec. 25, 2014 Rise Set
Actual Time
Civil Twilight
Nautical Twilight
Astronomical Twilight
Moon
Length of Visible Light
Length of Day
Tomorrow will be .
, % of the Moon is Illuminated

Today's Extremes

State Highs State Lows

Community

WunderPhotos

Upload Photos

1,780,519 photos uploaded!

WunderBlogs® & News

Nearby

Air Quality

  Air Quality AQ Index Pollutant
Not available.

Snow Depth

Station Depth Elevation

Earthquake Activity

City Distance Mag. Time & Date
Minimum magnitude displayed is 2.5.

Coastal Water Temperatures

Place Temperature

Nearby Weather Stations